sensor_id;sensor_type;location;lat;lon;timestamp;P1;durP1;ratioP1;P2;durP2;ratioP2
19869;SDS011;10097;50.862;4.696;2022-08-01T00:00:00;4.68;;;1.23;;
19869;SDS011;10097;50.862;4.696;2022-08-01T00:02:28;3.08;;;1.00;;
19869;SDS011;10097;50.862;4.696;2022-08-01T00:04:55;5.47;;;1.35;;
19869;SDS011;10097;50.862;4.696;2022-08-01T00:07:21;5.60;;;1.52;;
19869;SDS011;10097;50.862;4.696;2022-08-01T00:09:47;5.63;;;1.23;;
19869;SDS011;10097;50.862;4.696;2022-08-01T00:12:13;5.43;;;1.33;;
19869;SDS011;10097;50.862;4.696;2022-08-01T00:14:39;2.47;;;1.05;;
19869;SDS011;10097;50.862;4.696;2022-08-01T00:17:04;5.72;;;1.50;;
19869;SDS011;10097;50.862;4.696;2022-08-01T00:19:30;4.18;;;1.45;;
19869;SDS011;10097;50.862;4.696;2022-08-01T00:21:56;6.35;;;1.58;;
19869;SDS011;10097;50.862;4.696;2022-08-01T00:24:22;4.78;;;1.50;;
19869;SDS011;10097;50.862;4.696;2022-08-01T00:30:11;6.80;;;1.73;;
19869;SDS011;10097;50.862;4.696;2022-08-01T00:32:36;7.03;;;2.00;;
19869;SDS011;10097;50.862;4.696;2022-08-01T00:35:02;5.43;;;2.00;;
19869;SDS011;10097;50.862;4.696;2022-08-01T00:37:28;6.65;;;2.50;;
19869;SDS011;10097;50.862;4.696;2022-08-01T00:39:54;10.45;;;2.40;;
19869;SDS011;10097;50.862;4.696;2022-08-01T00:42:19;8.48;;;1.90;;
19869;SDS011;10097;50.862;4.696;2022-08-01T00:44:45;8.55;;;2.58;;
19869;SDS011;10097;50.862;4.696;2022-08-01T00:47:11;7.53;;;2.50;;
19869;SDS011;10097;50.862;4.696;2022-08-01T00:49:37;9.35;;;2.75;;
19869;SDS011;10097;50.862;4.696;2022-08-01T00:52:03;8.50;;;2.40;;
19869;SDS011;10097;50.862;4.696;2022-08-01T00:54:30;8.10;;;3.03;;
19869;SDS011;10097;50.862;4.696;2022-08-01T00:56:56;9.38;;;2.83;;
19869;SDS011;10097;50.862;4.696;2022-08-01T00:59:22;8.00;;;3.42;;
19869;SDS011;10097;50.862;4.696;2022-08-01T01:01:49;7.22;;;2.90;;
19869;SDS011;10097;50.862;4.696;2022-08-01T01:04:15;8.15;;;2.85;;
19869;SDS011;10097;50.862;4.696;2022-08-01T01:06:44;6.28;;;2.58;;
19869;SDS011;10097;50.862;4.696;2022-08-01T01:26:50;8.40;;;3.08;;
19869;SDS011;10097;50.862;4.696;2022-08-01T01:29:08;8.82;;;3.42;;
19869;SDS011;10097;50.862;4.696;2022-08-01T01:31:47;9.95;;;3.40;;
19869;SDS011;10097;50.862;4.696;2022-08-01T01:34:18;8.02;;;3.28;;
19869;SDS011;10097;50.862;4.696;2022-08-01T01:36:46;7.40;;;2.70;;
19869;SDS011;10097;50.862;4.696;2022-08-01T01:39:13;8.90;;;3.13;;
19869;SDS011;10097;50.862;4.696;2022-08-01T01:41:40;8.32;;;3.25;;
19869;SDS011;10097;50.862;4.696;2022-08-01T01:44:09;8.63;;;3.42;;
19869;SDS011;10097;50.862;4.696;2022-08-01T01:46:36;11.38;;;3.50;;
19869;SDS011;10097;50.862;4.696;2022-08-01T01:49:02;10.63;;;3.15;;
19869;SDS011;10097;50.862;4.696;2022-08-01T01:51:30;10.73;;;3.40;;
19869;SDS011;10097;50.862;4.696;2022-08-01T01:53:57;11.88;;;3.38;;
19869;SDS011;10097;50.862;4.696;2022-08-01T01:56:24;8.05;;;3.42;;
19869;SDS011;10097;50.862;4.696;2022-08-01T01:58:52;8.25;;;3.08;;
19869;SDS011;10097;50.862;4.696;2022-08-01T02:01:25;9.02;;;3.45;;
19869;SDS011;10097;50.862;4.696;2022-08-01T02:03:54;9.98;;;3.63;;
19869;SDS011;10097;50.862;4.696;2022-08-01T02:06:22;9.07;;;3.05;;
19869;SDS011;10097;50.862;4.696;2022-08-01T02:08:49;7.90;;;2.63;;
19869;SDS011;10097;50.862;4.696;2022-08-01T02:11:19;8.55;;;3.15;;
19869;SDS011;10097;50.862;4.696;2022-08-01T02:13:52;11.40;;;3.65;;
19869;SDS011;10097;50.862;4.696;2022-08-01T02:16:21;9.68;;;3.10;;
19869;SDS011;10097;50.862;4.696;2022-08-01T02:18:49;11.80;;;3.13;;
19869;SDS011;10097;50.862;4.696;2022-08-01T02:21:16;7.97;;;3.20;;
19869;SDS011;10097;50.862;4.696;2022-08-01T02:23:50;8.32;;;3.42;;
19869;SDS011;10097;50.862;4.696;2022-08-01T02:26:17;7.88;;;3.08;;
19869;SDS011;10097;50.862;4.696;2022-08-01T02:28:48;11.25;;;3.08;;
19869;SDS011;10097;50.862;4.696;2022-08-01T02:31:19;11.15;;;3.60;;
19869;SDS011;10097;50.862;4.696;2022-08-01T02:33:50;6.28;;;3.17;;
19869;SDS011;10097;50.862;4.696;2022-08-01T02:37:00;9.30;;;3.33;;
19869;SDS011;10097;50.862;4.696;2022-08-01T02:39:26;9.43;;;3.45;;
19869;SDS011;10097;50.862;4.696;2022-08-01T02:41:55;10.18;;;3.92;;
19869;SDS011;10097;50.862;4.696;2022-08-01T02:51:09;10.35;;;3.70;;
19869;SDS011;10097;50.862;4.696;2022-08-01T02:53:36;7.43;;;3.50;;
19869;SDS011;10097;50.862;4.696;2022-08-01T02:56:06;9.15;;;3.78;;
19869;SDS011;10097;50.862;4.696;2022-08-01T02:58:33;10.27;;;4.10;;
19869;SDS011;10097;50.862;4.696;2022-08-01T03:01:02;11.35;;;4.82;;
19869;SDS011;10097;50.862;4.696;2022-08-01T03:07:09;9.40;;;4.65;;
19869;SDS011;10097;50.862;4.696;2022-08-01T03:28:13;15.20;;;6.32;;
19869;SDS011;10097;50.862;4.696;2022-08-01T03:30:41;14.90;;;6.75;;
19869;SDS011;10097;50.862;4.696;2022-08-01T03:33:08;16.17;;;7.60;;
19869;SDS011;10097;50.862;4.696;2022-08-01T03:35:39;18.08;;;7.97;;
19869;SDS011;10097;50.862;4.696;2022-08-01T03:38:11;19.58;;;7.70;;
19869;SDS011;10097;50.862;4.696;2022-08-01T03:40:47;17.77;;;8.18;;
19869;SDS011;10097;50.862;4.696;2022-08-01T03:43:20;23.17;;;8.98;;
19869;SDS011;10097;50.862;4.696;2022-08-01T03:45:54;18.05;;;8.38;;
19869;SDS011;10097;50.862;4.696;2022-08-01T03:48:26;19.42;;;8.57;;
19869;SDS011;10097;50.862;4.696;2022-08-01T03:50:56;20.13;;;9.32;;
19869;SDS011;10097;50.862;4.696;2022-08-01T03:53:25;22.27;;;9.90;;
19869;SDS011;10097;50.862;4.696;2022-08-01T03:55:53;22.58;;;9.52;;
19869;SDS011;10097;50.862;4.696;2022-08-01T03:58:20;20.00;;;9.98;;
19869;SDS011;10097;50.862;4.696;2022-08-01T04:00:46;21.65;;;10.73;;
19869;SDS011;10097;50.862;4.696;2022-08-01T04:03:13;26.60;;;11.73;;
19869;SDS011;10097;50.862;4.696;2022-08-01T04:05:40;27.27;;;11.95;;
19869;SDS011;10097;50.862;4.696;2022-08-01T04:08:07;24.45;;;11.23;;
19869;SDS011;10097;50.862;4.696;2022-08-01T04:10:33;23.98;;;12.07;;
19869;SDS011;10097;50.862;4.696;2022-08-01T04:12:59;32.15;;;13.38;;
19869;SDS011;10097;50.862;4.696;2022-08-01T04:15:25;26.50;;;12.65;;
19869;SDS011;10097;50.862;4.696;2022-08-01T04:17:50;27.40;;;12.60;;
19869;SDS011;10097;50.862;4.696;2022-08-01T04:20:16;29.70;;;14.10;;
19869;SDS011;10097;50.862;4.696;2022-08-01T04:22:42;27.48;;;12.52;;
19869;SDS011;10097;50.862;4.696;2022-08-01T04:25:13;32.88;;;13.98;;
19869;SDS011;10097;50.862;4.696;2022-08-01T04:27:43;26.55;;;13.32;;
19869;SDS011;10097;50.862;4.696;2022-08-01T04:30:11;30.60;;;14.52;;
19869;SDS011;10097;50.862;4.696;2022-08-01T04:32:39;35.45;;;13.85;;
19869;SDS011;10097;50.862;4.696;2022-08-01T04:35:09;28.50;;;14.13;;
19869;SDS011;10097;50.862;4.696;2022-08-01T04:37:37;34.97;;;15.32;;
19869;SDS011;10097;50.862;4.696;2022-08-01T04:40:06;31.60;;;14.35;;
19869;SDS011;10097;50.862;4.696;2022-08-01T04:42:33;33.28;;;14.15;;
19869;SDS011;10097;50.862;4.696;2022-08-01T04:44:59;34.95;;;15.20;;
19869;SDS011;10097;50.862;4.696;2022-08-01T04:47:26;29.70;;;13.98;;
19869;SDS011;10097;50.862;4.696;2022-08-01T04:49:52;31.15;;;13.40;;
19869;SDS011;10097;50.862;4.696;2022-08-01T04:52:18;25.30;;;13.52;;
19869;SDS011;10097;50.862;4.696;2022-08-01T04:54:44;28.02;;;13.15;;
19869;SDS011;10097;50.862;4.696;2022-08-01T04:57:11;27.40;;;13.07;;
19869;SDS011;10097;50.862;4.696;2022-08-01T04:59:37;28.20;;;13.30;;
19869;SDS011;10097;50.862;4.696;2022-08-01T05:02:09;25.35;;;12.00;;
19869;SDS011;10097;50.862;4.696;2022-08-01T05:04:43;23.92;;;12.32;;
19869;SDS011;10097;50.862;4.696;2022-08-01T05:07:11;24.77;;;12.00;;
19869;SDS011;10097;50.862;4.696;2022-08-01T05:09:37;26.30;;;11.93;;
19869;SDS011;10097;50.862;4.696;2022-08-01T05:12:06;30.38;;;11.65;;
19869;SDS011;10097;50.862;4.696;2022-08-01T05:14:32;26.10;;;11.13;;
19869;SDS011;10097;50.862;4.696;2022-08-01T05:16:59;23.30;;;10.98;;
19869;SDS011;10097;50.862;4.696;2022-08-01T05:19:32;23.17;;;10.82;;
19869;SDS011;10097;50.862;4.696;2022-08-01T05:22:05;22.00;;;10.82;;
19869;SDS011;10097;50.862;4.696;2022-08-01T05:24:33;23.85;;;10.85;;
19869;SDS011;10097;50.862;4.696;2022-08-01T05:27:00;28.20;;;11.50;;
19869;SDS011;10097;50.862;4.696;2022-08-01T05:29:26;22.75;;;11.15;;
19869;SDS011;10097;50.862;4.696;2022-08-01T05:31:52;21.13;;;10.60;;
19869;SDS011;10097;50.862;4.696;2022-08-01T05:34:19;25.17;;;10.18;;
19869;SDS011;10097;50.862;4.696;2022-08-01T05:36:45;20.58;;;9.88;;
19869;SDS011;10097;50.862;4.696;2022-08-01T05:39:11;23.95;;;10.05;;
19869;SDS011;10097;50.862;4.696;2022-08-01T05:41:38;19.83;;;9.43;;
19869;SDS011;10097;50.862;4.696;2022-08-01T05:44:04;21.83;;;9.88;;
19869;SDS011;10097;50.862;4.696;2022-08-01T05:46:30;19.83;;;9.10;;
19869;SDS011;10097;50.862;4.696;2022-08-01T05:49:00;19.92;;;9.55;;
19869;SDS011;10097;50.862;4.696;2022-08-01T05:51:26;15.85;;;8.52;;
19869;SDS011;10097;50.862;4.696;2022-08-01T05:53:52;19.13;;;8.73;;
19869;SDS011;10097;50.862;4.696;2022-08-01T05:56:18;19.77;;;8.68;;
19869;SDS011;10097;50.862;4.696;2022-08-01T05:58:44;18.33;;;8.23;;
19869;SDS011;10097;50.862;4.696;2022-08-01T06:01:10;19.48;;;9.05;;
19869;SDS011;10097;50.862;4.696;2022-08-01T06:03:36;17.92;;;9.10;;
19869;SDS011;10097;50.862;4.696;2022-08-01T06:06:02;20.60;;;8.60;;
19869;SDS011;10097;50.862;4.696;2022-08-01T06:08:28;17.00;;;8.55;;
19869;SDS011;10097;50.862;4.696;2022-08-01T06:10:54;17.63;;;8.38;;
19869;SDS011;10097;50.862;4.696;2022-08-01T06:13:20;13.10;;;7.15;;
19869;SDS011;10097;50.862;4.696;2022-08-01T06:15:46;17.67;;;7.78;;
19869;SDS011;10097;50.862;4.696;2022-08-01T06:18:12;20.95;;;8.18;;
19869;SDS011;10097;50.862;4.696;2022-08-01T06:20:38;14.50;;;6.70;;
19869;SDS011;10097;50.862;4.696;2022-08-01T06:23:04;19.60;;;8.05;;
19869;SDS011;10097;50.862;4.696;2022-08-01T06:25:30;16.60;;;6.28;;
19869;SDS011;10097;50.862;4.696;2022-08-01T06:27:56;13.88;;;5.97;;
19869;SDS011;10097;50.862;4.696;2022-08-01T06:30:21;14.10;;;6.10;;
19869;SDS011;10097;50.862;4.696;2022-08-01T06:32:47;14.45;;;6.43;;
19869;SDS011;10097;50.862;4.696;2022-08-01T06:35:14;13.45;;;6.22;;
19869;SDS011;10097;50.862;4.696;2022-08-01T07:01:47;12.95;;;4.75;;
19869;SDS011;10097;50.862;4.696;2022-08-01T07:04:12;12.70;;;5.05;;
19869;SDS011;10097;50.862;4.696;2022-08-01T07:06:38;10.20;;;4.68;;
19869;SDS011;10097;50.862;4.696;2022-08-01T07:18:44;10.90;;;4.82;;
19869;SDS011;10097;50.862;4.696;2022-08-01T07:21:10;15.88;;;4.75;;
19869;SDS011;10097;50.862;4.696;2022-08-01T07:23:36;12.23;;;4.82;;
19869;SDS011;10097;50.862;4.696;2022-08-01T07:26:02;11.50;;;4.53;;
19869;SDS011;10097;50.862;4.696;2022-08-01T07:28:28;11.77;;;4.53;;
19869;SDS011;10097;50.862;4.696;2022-08-01T07:30:56;10.10;;;4.82;;
19869;SDS011;10097;50.862;4.696;2022-08-01T07:33:21;10.65;;;4.93;;
19869;SDS011;10097;50.862;4.696;2022-08-01T07:35:47;10.30;;;4.55;;
19869;SDS011;10097;50.862;4.696;2022-08-01T07:38:13;8.45;;;4.20;;
19869;SDS011;10097;50.862;4.696;2022-08-01T07:40:41;9.02;;;4.82;;
19869;SDS011;10097;50.862;4.696;2022-08-01T07:43:08;11.02;;;4.78;;
19869;SDS011;10097;50.862;4.696;2022-08-01T07:45:34;9.27;;;4.07;;
19869;SDS011;10097;50.862;4.696;2022-08-01T07:48:03;10.00;;;4.70;;
19869;SDS011;10097;50.862;4.696;2022-08-01T07:50:30;8.30;;;4.07;;
19869;SDS011;10097;50.862;4.696;2022-08-01T07:52:56;9.45;;;4.40;;
19869;SDS011;10097;50.862;4.696;2022-08-01T07:55:21;10.93;;;4.53;;
19869;SDS011;10097;50.862;4.696;2022-08-01T07:57:47;7.82;;;4.07;;
19869;SDS011;10097;50.862;4.696;2022-08-01T08:00:13;7.13;;;3.67;;
19869;SDS011;10097;50.862;4.696;2022-08-01T08:02:39;9.43;;;4.30;;
19869;SDS011;10097;50.862;4.696;2022-08-01T08:05:05;7.95;;;4.30;;
19869;SDS011;10097;50.862;4.696;2022-08-01T08:07:32;8.35;;;4.25;;
19869;SDS011;10097;50.862;4.696;2022-08-01T08:09:57;8.60;;;4.15;;
19869;SDS011;10097;50.862;4.696;2022-08-01T08:12:23;12.70;;;4.75;;
19869;SDS011;10097;50.862;4.696;2022-08-01T08:14:50;8.70;;;4.75;;
19869;SDS011;10097;50.862;4.696;2022-08-01T08:17:16;9.57;;;5.00;;
19869;SDS011;10097;50.862;4.696;2022-08-01T08:19:41;8.75;;;4.53;;
19869;SDS011;10097;50.862;4.696;2022-08-01T08:22:08;9.48;;;3.92;;
19869;SDS011;10097;50.862;4.696;2022-08-01T08:24:34;9.07;;;4.93;;
19869;SDS011;10097;50.862;4.696;2022-08-01T08:27:01;7.50;;;4.45;;
19869;SDS011;10097;50.862;4.696;2022-08-01T08:29:28;9.20;;;4.30;;
19869;SDS011;10097;50.862;4.696;2022-08-01T08:31:56;8.30;;;4.38;;
19869;SDS011;10097;50.862;4.696;2022-08-01T08:34:22;8.65;;;4.60;;
19869;SDS011;10097;50.862;4.696;2022-08-01T08:36:49;10.27;;;4.38;;
19869;SDS011;10097;50.862;4.696;2022-08-01T08:39:15;8.00;;;3.60;;
19869;SDS011;10097;50.862;4.696;2022-08-01T08:41:41;9.85;;;4.13;;
19869;SDS011;10097;50.862;4.696;2022-08-01T08:44:08;6.35;;;3.70;;
19869;SDS011;10097;50.862;4.696;2022-08-01T08:46:37;8.27;;;3.67;;
19869;SDS011;10097;50.862;4.696;2022-08-01T08:49:06;8.80;;;3.78;;
19869;SDS011;10097;50.862;4.696;2022-08-01T08:51:33;6.45;;;3.40;;
19869;SDS011;10097;50.862;4.696;2022-08-01T08:54:02;5.78;;;2.90;;
19869;SDS011;10097;50.862;4.696;2022-08-01T08:56:31;8.70;;;3.00;;
19869;SDS011;10097;50.862;4.696;2022-08-01T08:58:59;4.57;;;2.45;;
19869;SDS011;10097;50.862;4.696;2022-08-01T09:01:25;5.88;;;2.70;;
19869;SDS011;10097;50.862;4.696;2022-08-01T09:03:51;6.25;;;3.00;;
19869;SDS011;10097;50.862;4.696;2022-08-01T09:06:18;3.78;;;2.33;;
19869;SDS011;10097;50.862;4.696;2022-08-01T09:08:44;4.53;;;2.42;;
19869;SDS011;10097;50.862;4.696;2022-08-01T09:11:10;6.20;;;2.75;;
19869;SDS011;10097;50.862;4.696;2022-08-01T09:13:36;5.25;;;2.00;;
19869;SDS011;10097;50.862;4.696;2022-08-01T09:16:02;4.28;;;2.70;;
19869;SDS011;10097;50.862;4.696;2022-08-01T09:18:33;9.13;;;3.55;;
19869;SDS011;10097;50.862;4.696;2022-08-01T09:21:18;5.13;;;2.33;;
19869;SDS011;10097;50.862;4.696;2022-08-01T09:23:47;7.57;;;2.90;;
19869;SDS011;10097;50.862;4.696;2022-08-01T09:26:13;8.35;;;2.72;;
19869;SDS011;10097;50.862;4.696;2022-08-01T09:28:44;7.60;;;2.50;;
19869;SDS011;10097;50.862;4.696;2022-08-01T09:31:11;6.57;;;3.00;;
19869;SDS011;10097;50.862;4.696;2022-08-01T09:33:55;5.95;;;2.83;;
19869;SDS011;10097;50.862;4.696;2022-08-01T09:36:27;5.60;;;2.70;;
19869;SDS011;10097;50.862;4.696;2022-08-01T09:39:25;5.40;;;3.10;;
19869;SDS011;10097;50.862;4.696;2022-08-01T09:41:53;5.63;;;3.00;;
19869;SDS011;10097;50.862;4.696;2022-08-01T09:44:36;5.53;;;2.53;;
19869;SDS011;10097;50.862;4.696;2022-08-01T09:47:02;4.38;;;2.38;;
19869;SDS011;10097;50.862;4.696;2022-08-01T09:49:31;7.47;;;3.13;;
19869;SDS011;10097;50.862;4.696;2022-08-01T09:52:00;6.65;;;3.00;;
19869;SDS011;10097;50.862;4.696;2022-08-01T09:54:39;6.75;;;2.97;;
19869;SDS011;10097;50.862;4.696;2022-08-01T09:59:37;4.97;;;2.83;;
19869;SDS011;10097;50.862;4.696;2022-08-01T10:02:06;4.43;;;2.67;;
19869;SDS011;10097;50.862;4.696;2022-08-01T10:04:45;6.22;;;3.20;;
19869;SDS011;10097;50.862;4.696;2022-08-01T10:07:13;7.47;;;3.22;;
19869;SDS011;10097;50.862;4.696;2022-08-01T10:09:40;5.97;;;2.65;;
19869;SDS011;10097;50.862;4.696;2022-08-01T10:12:08;4.53;;;2.20;;
19869;SDS011;10097;50.862;4.696;2022-08-01T10:14:34;5.85;;;1.90;;
19869;SDS011;10097;50.862;4.696;2022-08-01T10:17:02;5.72;;;2.10;;
19869;SDS011;10097;50.862;4.696;2022-08-01T10:19:31;5.13;;;2.15;;
19869;SDS011;10097;50.862;4.696;2022-08-01T10:21:57;5.82;;;2.22;;
19869;SDS011;10097;50.862;4.696;2022-08-01T10:24:24;3.85;;;2.15;;
19869;SDS011;10097;50.862;4.696;2022-08-01T10:26:53;3.40;;;2.00;;
19869;SDS011;10097;50.862;4.696;2022-08-01T10:29:24;3.67;;;1.65;;
19869;SDS011;10097;50.862;4.696;2022-08-01T10:31:52;5.45;;;2.15;;
19869;SDS011;10097;50.862;4.696;2022-08-01T10:34:17;4.50;;;1.88;;
19869;SDS011;10097;50.862;4.696;2022-08-01T10:36:47;3.47;;;1.60;;
19869;SDS011;10097;50.862;4.696;2022-08-01T10:39:13;3.40;;;2.15;;
19869;SDS011;10097;50.862;4.696;2022-08-01T10:41:41;5.40;;;2.38;;
19869;SDS011;10097;50.862;4.696;2022-08-01T10:44:07;4.18;;;1.90;;
19869;SDS011;10097;50.862;4.696;2022-08-01T10:46:37;4.90;;;2.05;;
19869;SDS011;10097;50.862;4.696;2022-08-01T10:49:05;5.80;;;2.17;;
19869;SDS011;10097;50.862;4.696;2022-08-01T10:51:35;6.03;;;2.00;;
19869;SDS011;10097;50.862;4.696;2022-08-01T10:54:05;4.43;;;2.17;;
19869;SDS011;10097;50.862;4.696;2022-08-01T10:56:38;3.53;;;2.03;;
19869;SDS011;10097;50.862;4.696;2022-08-01T10:59:07;3.03;;;1.60;;
19869;SDS011;10097;50.862;4.696;2022-08-01T11:01:33;3.70;;;1.50;;
19869;SDS011;10097;50.862;4.696;2022-08-01T11:04:07;2.58;;;1.58;;
19869;SDS011;10097;50.862;4.696;2022-08-01T11:06:39;4.68;;;1.75;;
19869;SDS011;10097;50.862;4.696;2022-08-01T11:09:39;3.00;;;1.67;;
19869;SDS011;10097;50.862;4.696;2022-08-01T11:25:24;3.28;;;1.50;;
19869;SDS011;10097;50.862;4.696;2022-08-01T11:28:17;4.30;;;1.48;;
19869;SDS011;10097;50.862;4.696;2022-08-01T11:30:43;3.10;;;1.50;;
19869;SDS011;10097;50.862;4.696;2022-08-01T11:33:10;2.10;;;1.60;;
19869;SDS011;10097;50.862;4.696;2022-08-01T11:35:37;3.60;;;1.30;;
19869;SDS011;10097;50.862;4.696;2022-08-01T11:38:25;2.88;;;1.80;;
19869;SDS011;10097;50.862;4.696;2022-08-01T11:41:12;4.30;;;1.55;;
19869;SDS011;10097;50.862;4.696;2022-08-01T11:49:25;2.80;;;1.50;;
19869;SDS011;10097;50.862;4.696;2022-08-01T11:54:35;2.72;;;0.90;;
19869;SDS011;10097;50.862;4.696;2022-08-01T11:57:06;2.70;;;0.90;;
19869;SDS011;10097;50.862;4.696;2022-08-01T11:59:38;3.47;;;1.48;;
19869;SDS011;10097;50.862;4.696;2022-08-01T12:04:56;3.63;;;1.48;;
19869;SDS011;10097;50.862;4.696;2022-08-01T12:07:32;4.90;;;1.10;;
19869;SDS011;10097;50.862;4.696;2022-08-01T12:12:29;2.55;;;0.82;;
19869;SDS011;10097;50.862;4.696;2022-08-01T12:15:00;4.35;;;1.05;;
19869;SDS011;10097;50.862;4.696;2022-08-01T12:20:05;2.97;;;1.00;;
19869;SDS011;10097;50.862;4.696;2022-08-01T12:22:32;4.88;;;1.20;;
19869;SDS011;10097;50.862;4.696;2022-08-01T12:25:08;1.67;;;0.60;;
19869;SDS011;10097;50.862;4.696;2022-08-01T12:27:37;1.92;;;0.85;;
19869;SDS011;10097;50.862;4.696;2022-08-01T12:30:07;5.82;;;0.98;;
19869;SDS011;10097;50.862;4.696;2022-08-01T12:32:35;1.88;;;0.50;;
19869;SDS011;10097;50.862;4.696;2022-08-01T12:35:04;2.80;;;0.57;;
19869;SDS011;10097;50.862;4.696;2022-08-01T12:37:41;5.30;;;0.90;;
19869;SDS011;10097;50.862;4.696;2022-08-01T12:42:48;3.08;;;0.60;;
19869;SDS011;10097;50.862;4.696;2022-08-01T12:45:17;2.38;;;0.65;;
19869;SDS011;10097;50.862;4.696;2022-08-01T12:47:48;2.65;;;0.60;;
19869;SDS011;10097;50.862;4.696;2022-08-01T12:50:15;3.72;;;0.98;;
19869;SDS011;10097;50.862;4.696;2022-08-01T12:52:44;8.60;;;0.77;;
19869;SDS011;10097;50.862;4.696;2022-08-01T12:55:10;3.13;;;0.77;;
19869;SDS011;10097;50.862;4.696;2022-08-01T12:57:42;6.28;;;0.90;;
19869;SDS011;10097;50.862;4.696;2022-08-01T13:00:24;2.03;;;0.70;;
19869;SDS011;10097;50.862;4.696;2022-08-01T13:03:07;3.35;;;0.73;;
19869;SDS011;10097;50.862;4.696;2022-08-01T13:08:12;2.65;;;1.00;;
19869;SDS011;10097;50.862;4.696;2022-08-01T13:10:42;2.72;;;0.52;;
19869;SDS011;10097;50.862;4.696;2022-08-01T13:13:09;1.73;;;0.52;;
19869;SDS011;10097;50.862;4.696;2022-08-01T13:15:36;2.78;;;0.70;;
19869;SDS011;10097;50.862;4.696;2022-08-01T13:23:35;4.35;;;1.20;;
19869;SDS011;10097;50.862;4.696;2022-08-01T13:26:01;1.88;;;0.70;;
19869;SDS011;10097;50.862;4.696;2022-08-01T13:28:27;4.65;;;0.82;;
19869;SDS011;10097;50.862;4.696;2022-08-01T13:31:03;6.13;;;0.80;;
19869;SDS011;10097;50.862;4.696;2022-08-01T13:33:46;2.97;;;0.60;;
19869;SDS011;10097;50.862;4.696;2022-08-01T13:36:13;3.90;;;0.65;;
19869;SDS011;10097;50.862;4.696;2022-08-01T13:38:39;3.28;;;0.57;;
19869;SDS011;10097;50.862;4.696;2022-08-01T13:41:25;2.75;;;0.60;;
19869;SDS011;10097;50.862;4.696;2022-08-01T13:43:51;2.80;;;0.93;;
19869;SDS011;10097;50.862;4.696;2022-08-01T13:46:16;1.23;;;0.60;;
19869;SDS011;10097;50.862;4.696;2022-08-01T13:48:43;1.63;;;0.63;;
19869;SDS011;10097;50.862;4.696;2022-08-01T13:51:08;2.03;;;0.63;;
19869;SDS011;10097;50.862;4.696;2022-08-01T13:53:35;2.92;;;0.70;;
19869;SDS011;10097;50.862;4.696;2022-08-01T13:56:01;4.35;;;0.82;;
19869;SDS011;10097;50.862;4.696;2022-08-01T13:58:27;6.95;;;0.68;;
19869;SDS011;10097;50.862;4.696;2022-08-01T14:00:53;9.43;;;0.90;;
19869;SDS011;10097;50.862;4.696;2022-08-01T14:03:20;2.22;;;0.70;;
19869;SDS011;10097;50.862;4.696;2022-08-01T14:05:47;2.67;;;0.70;;
19869;SDS011;10097;50.862;4.696;2022-08-01T14:08:13;3.80;;;0.77;;
19869;SDS011;10097;50.862;4.696;2022-08-01T14:10:39;2.67;;;0.70;;
19869;SDS011;10097;50.862;4.696;2022-08-01T14:13:05;5.07;;;1.10;;
19869;SDS011;10097;50.862;4.696;2022-08-01T14:15:31;2.10;;;0.65;;
19869;SDS011;10097;50.862;4.696;2022-08-01T14:17:57;2.53;;;0.60;;
19869;SDS011;10097;50.862;4.696;2022-08-01T14:20:24;3.75;;;0.80;;
19869;SDS011;10097;50.862;4.696;2022-08-01T14:22:49;3.33;;;0.70;;
19869;SDS011;10097;50.862;4.696;2022-08-01T14:25:15;2.67;;;0.65;;
19869;SDS011;10097;50.862;4.696;2022-08-01T14:27:43;1.50;;;0.40;;
19869;SDS011;10097;50.862;4.696;2022-08-01T14:30:09;3.13;;;0.73;;
19869;SDS011;10097;50.862;4.696;2022-08-01T14:32:36;1.15;;;0.47;;
19869;SDS011;10097;50.862;4.696;2022-08-01T14:35:03;1.55;;;0.65;;
19869;SDS011;10097;50.862;4.696;2022-08-01T14:37:30;3.65;;;0.75;;
19869;SDS011;10097;50.862;4.696;2022-08-01T14:39:59;2.00;;;0.68;;
19869;SDS011;10097;50.862;4.696;2022-08-01T14:42:32;3.58;;;0.80;;
19869;SDS011;10097;50.862;4.696;2022-08-01T14:44:58;3.05;;;0.65;;
19869;SDS011;10097;50.862;4.696;2022-08-01T14:47:24;1.15;;;0.30;;
19869;SDS011;10097;50.862;4.696;2022-08-01T14:49:50;3.13;;;0.70;;
19869;SDS011;10097;50.862;4.696;2022-08-01T14:52:16;2.17;;;0.75;;
19869;SDS011;10097;50.862;4.696;2022-08-01T14:54:42;2.95;;;0.95;;
19869;SDS011;10097;50.862;4.696;2022-08-01T14:57:08;1.77;;;0.47;;
19869;SDS011;10097;50.862;4.696;2022-08-01T14:59:34;5.25;;;0.93;;
19869;SDS011;10097;50.862;4.696;2022-08-01T15:02:00;3.40;;;0.68;;
19869;SDS011;10097;50.862;4.696;2022-08-01T15:04:25;7.07;;;0.90;;
19869;SDS011;10097;50.862;4.696;2022-08-01T15:06:51;7.03;;;0.82;;
19869;SDS011;10097;50.862;4.696;2022-08-01T15:09:17;4.43;;;0.88;;
19869;SDS011;10097;50.862;4.696;2022-08-01T15:11:42;1.33;;;0.60;;
19869;SDS011;10097;50.862;4.696;2022-08-01T15:14:08;1.58;;;0.70;;
19869;SDS011;10097;50.862;4.696;2022-08-01T15:16:52;5.13;;;1.08;;
19869;SDS011;10097;50.862;4.696;2022-08-01T15:19:18;1.58;;;0.40;;
19869;SDS011;10097;50.862;4.696;2022-08-01T15:21:44;5.13;;;0.80;;
19869;SDS011;10097;50.862;4.696;2022-08-01T15:24:09;1.58;;;0.50;;
19869;SDS011;10097;50.862;4.696;2022-08-01T15:26:35;4.22;;;0.60;;
19869;SDS011;10097;50.862;4.696;2022-08-01T15:29:00;3.42;;;0.68;;
19869;SDS011;10097;50.862;4.696;2022-08-01T15:31:26;2.55;;;0.68;;
19869;SDS011;10097;50.862;4.696;2022-08-01T15:33:52;2.30;;;1.02;;
19869;SDS011;10097;50.862;4.696;2022-08-01T15:36:17;4.25;;;0.90;;
19869;SDS011;10097;50.862;4.696;2022-08-01T15:38:43;8.18;;;0.90;;
19869;SDS011;10097;50.862;4.696;2022-08-01T15:41:09;3.45;;;0.60;;
19869;SDS011;10097;50.862;4.696;2022-08-01T15:43:35;3.92;;;0.73;;
19869;SDS011;10097;50.862;4.696;2022-08-01T15:46:00;2.00;;;0.60;;
19869;SDS011;10097;50.862;4.696;2022-08-01T15:48:26;1.65;;;0.65;;
19869;SDS011;10097;50.862;4.696;2022-08-01T15:50:52;1.75;;;0.50;;
19869;SDS011;10097;50.862;4.696;2022-08-01T15:53:17;2.05;;;0.60;;
19869;SDS011;10097;50.862;4.696;2022-08-01T15:55:43;2.83;;;0.55;;
19869;SDS011;10097;50.862;4.696;2022-08-01T15:58:09;4.10;;;1.30;;
19869;SDS011;10097;50.862;4.696;2022-08-01T16:00:35;1.92;;;0.63;;
19869;SDS011;10097;50.862;4.696;2022-08-01T16:03:01;10.63;;;2.95;;
19869;SDS011;10097;50.862;4.696;2022-08-01T16:05:26;2.70;;;0.77;;
19869;SDS011;10097;50.862;4.696;2022-08-01T16:07:52;2.33;;;0.82;;
19869;SDS011;10097;50.862;4.696;2022-08-01T16:10:18;1.67;;;0.65;;
19869;SDS011;10097;50.862;4.696;2022-08-01T16:12:43;2.20;;;0.60;;
19869;SDS011;10097;50.862;4.696;2022-08-01T16:15:09;6.63;;;0.60;;
19869;SDS011;10097;50.862;4.696;2022-08-01T16:17:35;3.35;;;0.75;;
19869;SDS011;10097;50.862;4.696;2022-08-01T16:20:01;5.28;;;0.80;;
19869;SDS011;10097;50.862;4.696;2022-08-01T16:22:27;2.80;;;0.77;;
19869;SDS011;10097;50.862;4.696;2022-08-01T16:24:52;2.40;;;0.50;;
19869;SDS011;10097;50.862;4.696;2022-08-01T16:27:18;4.47;;;0.75;;
19869;SDS011;10097;50.862;4.696;2022-08-01T16:29:44;3.90;;;0.80;;
19869;SDS011;10097;50.862;4.696;2022-08-01T16:32:10;4.07;;;0.70;;
19869;SDS011;10097;50.862;4.696;2022-08-01T16:34:35;2.38;;;1.00;;
19869;SDS011;10097;50.862;4.696;2022-08-01T16:37:01;1.88;;;0.57;;
19869;SDS011;10097;50.862;4.696;2022-08-01T16:39:27;1.80;;;0.50;;
19869;SDS011;10097;50.862;4.696;2022-08-01T16:41:54;4.00;;;0.68;;
19869;SDS011;10097;50.862;4.696;2022-08-01T16:44:20;1.95;;;0.60;;
19869;SDS011;10097;50.862;4.696;2022-08-01T16:46:46;1.75;;;0.50;;
19869;SDS011;10097;50.862;4.696;2022-08-01T16:49:11;3.25;;;1.15;;
19869;SDS011;10097;50.862;4.696;2022-08-01T16:51:37;3.92;;;0.80;;
19869;SDS011;10097;50.862;4.696;2022-08-01T16:54:03;3.67;;;0.80;;